»·PEaware :: SKY36C KHII-KPSP

SKY36C :: KHII-KPSP

FLIGHT INFORMATION

Flight Status: Arrived
Operator:
Sky High Charters
More flights by this operator :: More flights under this callsign
Pilot: David S. (31490)
Aircraft: BEECH AIRCRAFT BARON
(BE58)
More flights by this aircraft type
Origin: KHII Lake Havasu City
United States
Destination: KPSP Palm Springs Intl
United States
More flights between these airports :: More routes between these airports
Route: +EED CLOWD1
File this flight plan on PilotEdge
Remarks: VOR DME B (THERMAL)
Altitude:
(Current/Filed)
16,000ft
Speed:
(Current/Filed)
160kts
Departed: 21-Nov-20 01:05 PM
Arrived: 21-Nov-20 02:13 PM
Distance/Time
Traveled:
116nm/1:08
Distance/Time
To Go:
Arrived

Flight Plot

Page will automatically refresh every two minutes.

Flight plan parsing failed; only flown route is shown


Map Options




Map Legend


Flown Route
Filed Route
Departure Airport
Arrival Airport
Navaid (VOR, NDB)
Fix

Horizontal Profiles

Position Reports

Time Latitude Longitude Heading Altitude Ground
Speed
21-Nov-20 12:50 34.570643 -114.359713 148 744ft 0kts
21-Nov-20 12:51 34.570643 -114.359713 148 744ft 0kts
21-Nov-20 12:52 34.570643 -114.359713 148 744ft 0kts
21-Nov-20 12:53 34.570643 -114.359713 148 744ft 0kts
21-Nov-20 12:54 34.570643 -114.359713 148 744ft 0kts
21-Nov-20 12:55 34.570643 -114.359713 148 744ft 0kts
21-Nov-20 12:56 34.570643 -114.359713 148 744ft 0kts
21-Nov-20 12:57 34.570643 -114.359713 148 744ft 0kts
21-Nov-20 12:58 34.570643 -114.359713 148 744ft 0kts
21-Nov-20 12:59 34.570643 -114.359713 148 744ft 0kts
21-Nov-20 13:00 34.570203 -114.359295 136 744ft 17kts
21-Nov-20 13:01 34.564410 -114.354809 148 756ft 30kts
21-Nov-20 13:02 34.561478 -114.352841 137 769ft 0kts
21-Nov-20 13:03 34.561337 -114.352611 99 771ft 0kts
21-Nov-20 13:04 34.564762 -114.353807 328 767ft 85kts
21-Nov-20 13:05 34.584306 -114.376589 304 2195ft 108kts
21-Nov-20 13:06 34.603542 -114.403453 297 3735ft 106kts
21-Nov-20 13:07 34.618995 -114.433483 305 5088ft 111kts
21-Nov-20 13:08 34.649789 -114.446004 333 6283ft 123kts
21-Nov-20 13:09 34.682798 -114.455270 349 7389ft 129kts
21-Nov-20 13:10 34.717793 -114.461930 333 8392ft 124kts
21-Nov-20 13:11 34.752390 -114.468810 342 9329ft 124kts
21-Nov-20 13:12 34.744915 -114.499121 237 10195ft 110kts
21-Nov-20 13:13 34.728430 -114.532166 255 10926ft 116kts
21-Nov-20 13:14 34.706425 -114.561161 237 11679ft 117kts
21-Nov-20 13:15 34.688536 -114.589079 240 12582ft 103kts
21-Nov-20 13:16 34.672268 -114.618044 239 13294ft 104kts
21-Nov-20 13:17 34.654222 -114.645710 235 13947ft 105kts
21-Nov-20 13:18 34.635330 -114.672987 235 14577ft 105kts
21-Nov-20 13:19 34.616615 -114.700575 235 15165ft 106kts
21-Nov-20 13:20 34.597955 -114.728172 235 15710ft 106kts
21-Nov-20 13:21 34.577209 -114.759595 235 15876ft 129kts
21-Nov-20 13:22 34.553491 -114.796329 235 15852ft 143kts
21-Nov-20 13:23 34.527274 -114.835268 233 15872ft 152kts
21-Nov-20 13:24 34.499712 -114.875394 233 15848ft 157kts
21-Nov-20 13:25 34.471807 -114.916085 233 15842ft 157kts
21-Nov-20 13:26 34.443757 -114.956997 233 15843ft 157kts
21-Nov-20 13:27 34.415929 -114.997584 233 15572ft 175kts
21-Nov-20 13:28 34.384335 -115.044320 233 15031ft 176kts
21-Nov-20 13:29 34.353804 -115.089228 233 14805ft 169kts
21-Nov-20 13:30 34.324544 -115.131981 233 14730ft 164kts
21-Nov-20 13:31 34.295124 -115.176598 234 14357ft 170kts
21-Nov-20 13:32 34.267338 -115.218543 234 14545ft 153kts
21-Nov-20 13:33 34.240596 -115.258733 235 14599ft 154kts
21-Nov-20 13:34 34.213467 -115.299573 235 14539ft 161kts
21-Nov-20 13:35 34.185687 -115.341526 235 14399ft 164kts
21-Nov-20 13:36 34.157647 -115.383902 235 14393ft 159kts
21-Nov-20 13:37 34.130086 -115.425438 235 14395ft 157kts
21-Nov-20 13:38 34.102740 -115.466610 235 14400ft 157kts
21-Nov-20 13:39 34.075437 -115.507714 235 14399ft 157kts
21-Nov-20 13:40 34.048087 -115.548883 235 14399ft 157kts
21-Nov-20 13:41 34.020840 -115.589892 235 14399ft 157kts
21-Nov-20 13:42 33.993437 -115.630914 234 14399ft 157kts
21-Nov-20 13:43 33.965396 -115.671510 233 14403ft 157kts
21-Nov-20 13:44 33.937158 -115.712383 233 14408ft 160kts
21-Nov-20 13:45 33.914987 -115.757642 265 14095ft 173kts
21-Nov-20 13:46 33.910749 -115.825909 265 11606ft 221kts
21-Nov-20 13:47 33.905991 -115.899018 267 9722ft 202kts
21-Nov-20 13:48 33.892214 -115.964217 232 7905ft 219kts
21-Nov-20 13:49 33.840908 -116.004082 217 5935ft 209kts
21-Nov-20 13:50 33.797298 -116.028988 212 5867ft 201kts
21-Nov-20 13:51 33.751559 -116.061336 224 5230ft 185kts
21-Nov-20 13:52 33.710079 -116.100557 218 4311ft 193kts
21-Nov-20 13:53 33.666022 -116.134891 218 3860ft 180kts
21-Nov-20 13:54 33.619564 -116.149018 172 3726ft 179kts
21-Nov-20 13:55 33.593217 -116.102985 124 3935ft 167kts
21-Nov-20 13:56 33.590718 -116.055013 29 4119ft 149kts
21-Nov-20 13:57 33.627634 -116.050147 312 3995ft 121kts
21-Nov-20 13:58 33.628465 -116.082511 257 4124ft 111kts
21-Nov-20 13:59 33.624280 -116.123056 269 4031ft 130kts
21-Nov-20 14:00 33.633001 -116.164172 287 3964ft 124kts
21-Nov-20 14:01 33.651483 -116.198362 297 4010ft 122kts
21-Nov-20 14:03 33.671499 -116.233739 304 3363ft 128kts
21-Nov-20 14:04 33.689551 -116.266390 299 3063ft 111kts
21-Nov-20 14:05 33.706288 -116.294818 298 3223ft 100kts
21-Nov-20 14:06 33.722470 -116.324650 300 3244ft 118kts
21-Nov-20 14:07 33.742320 -116.354462 303 2989ft 106kts
21-Nov-20 14:08 33.758208 -116.383368 298 3005ft 99kts
21-Nov-20 14:09 33.774987 -116.412586 297 2487ft 115kts
21-Nov-20 14:10 33.786463 -116.445156 287 1377ft 101kts
21-Nov-20 14:11 33.801086 -116.480349 300 894ft 126kts
21-Nov-20 14:12 33.825025 -116.503332 314 440ft 98kts
21-Nov-20 14:13 33.833443 -116.513168 320 444ft 12kts
21-Nov-20 14:14 33.834402 -116.514053 324 448ft 0kts
21-Nov-20 14:15 33.833219 -116.512958 144 442ft 26kts
21-Nov-20 14:16 33.827885 -116.509308 176 425ft 15kts
21-Nov-20 14:17 33.827879 -116.509162 350 425ft 0kts
21-Nov-20 14:17 33.827879 -116.509162 350 425ft 0kts

Navigation Log

Ident Type
Flight plan parsing failed, navigation log unavailable